sensor_id;sensor_type;location;lat;lon;timestamp;temperature;humidity
4215;DHT22;2121;48.062;7.850;2023-08-30T00:00:41;12.60;99.90
4215;DHT22;2121;48.062;7.850;2023-08-30T00:03:07;12.60;99.90
4215;DHT22;2121;48.062;7.850;2023-08-30T00:05:33;12.50;99.90
4215;DHT22;2121;48.062;7.850;2023-08-30T00:07:59;12.40;99.90
4215;DHT22;2121;48.062;7.850;2023-08-30T00:10:25;12.40;99.90
4215;DHT22;2121;48.062;7.850;2023-08-30T00:12:50;12.40;99.90
4215;DHT22;2121;48.062;7.850;2023-08-30T00:15:16;12.30;99.90
4215;DHT22;2121;48.062;7.850;2023-08-30T00:17:42;12.30;99.90
4215;DHT22;2121;48.062;7.850;2023-08-30T00:20:09;12.30;99.90
4215;DHT22;2121;48.062;7.850;2023-08-30T00:22:35;12.20;99.90
4215;DHT22;2121;48.062;7.850;2023-08-30T00:25:01;12.30;99.90
4215;DHT22;2121;48.062;7.850;2023-08-30T00:27:27;12.50;99.90
4215;DHT22;2121;48.062;7.850;2023-08-30T00:29:53;12.60;99.90
4215;DHT22;2121;48.062;7.850;2023-08-30T00:32:19;12.70;99.90
4215;DHT22;2121;48.062;7.850;2023-08-30T00:34:44;12.60;99.90
4215;DHT22;2121;48.062;7.850;2023-08-30T00:37:10;12.50;99.90
4215;DHT22;2121;48.062;7.850;2023-08-30T00:39:39;12.50;99.90
4215;DHT22;2121;48.062;7.850;2023-08-30T00:42:05;12.50;99.90
4215;DHT22;2121;48.062;7.850;2023-08-30T00:44:33;12.50;99.90
4215;DHT22;2121;48.062;7.850;2023-08-30T00:47:00;12.40;99.90
4215;DHT22;2121;48.062;7.850;2023-08-30T00:49:30;12.30;99.90
4215;DHT22;2121;48.062;7.850;2023-08-30T00:52:01;12.20;99.90
4215;DHT22;2121;48.062;7.850;2023-08-30T00:54:29;12.10;99.90
4215;DHT22;2121;48.062;7.850;2023-08-30T00:56:55;12.00;99.90
4215;DHT22;2121;48.062;7.850;2023-08-30T00:59:21;11.90;99.90
4215;DHT22;2121;48.062;7.850;2023-08-30T01:01:47;11.90;99.90
4215;DHT22;2121;48.062;7.850;2023-08-30T01:04:14;11.90;99.90
4215;DHT22;2121;48.062;7.850;2023-08-30T01:06:40;11.90;99.90
4215;DHT22;2121;48.062;7.850;2023-08-30T01:09:07;12.00;99.90
4215;DHT22;2121;48.062;7.850;2023-08-30T01:14:09;12.10;99.90
4215;DHT22;2121;48.062;7.850;2023-08-30T01:16:48;11.90;99.90
4215;DHT22;2121;48.062;7.850;2023-08-30T01:19:45;11.90;99.90
4215;DHT22;2121;48.062;7.850;2023-08-30T01:22:45;11.90;99.90
4215;DHT22;2121;48.062;7.850;2023-08-30T01:28:08;11.90;99.90
4215;DHT22;2121;48.062;7.850;2023-08-30T01:30:37;11.90;99.90
4215;DHT22;2121;48.062;7.850;2023-08-30T01:33:07;11.90;99.90
4215;DHT22;2121;48.062;7.850;2023-08-30T01:35:34;11.90;99.90
4215;DHT22;2121;48.062;7.850;2023-08-30T01:38:03;11.90;99.90
4215;DHT22;2121;48.062;7.850;2023-08-30T01:40:33;11.90;99.90
4215;DHT22;2121;48.062;7.850;2023-08-30T01:43:01;11.80;99.90
4215;DHT22;2121;48.062;7.850;2023-08-30T01:45:32;11.80;99.90
4215;DHT22;2121;48.062;7.850;2023-08-30T01:48:00;11.70;99.90
4215;DHT22;2121;48.062;7.850;2023-08-30T01:50:26;11.60;99.90
4215;DHT22;2121;48.062;7.850;2023-08-30T01:52:53;11.70;99.90
4215;DHT22;2121;48.062;7.850;2023-08-30T01:55:21;11.80;99.90
4215;DHT22;2121;48.062;7.850;2023-08-30T01:57:48;11.70;99.90
4215;DHT22;2121;48.062;7.850;2023-08-30T02:00:14;11.70;99.90
4215;DHT22;2121;48.062;7.850;2023-08-30T02:02:41;11.60;99.90
4215;DHT22;2121;48.062;7.850;2023-08-30T02:05:07;11.60;99.90
4215;DHT22;2121;48.062;7.850;2023-08-30T02:08:26;11.50;99.90
4215;DHT22;2121;48.062;7.850;2023-08-30T02:10:56;11.50;99.90
4215;DHT22;2121;48.062;7.850;2023-08-30T02:13:28;11.40;99.90
4215;DHT22;2121;48.062;7.850;2023-08-30T02:15:55;11.30;99.90
4215;DHT22;2121;48.062;7.850;2023-08-30T02:18:25;11.30;99.90
4215;DHT22;2121;48.062;7.850;2023-08-30T02:20:51;11.20;99.90
4215;DHT22;2121;48.062;7.850;2023-08-30T02:23:17;11.20;99.90
4215;DHT22;2121;48.062;7.850;2023-08-30T02:25:43;11.10;99.90
4215;DHT22;2121;48.062;7.850;2023-08-30T02:28:09;11.10;99.90
4215;DHT22;2121;48.062;7.850;2023-08-30T02:30:34;11.10;99.90
4215;DHT22;2121;48.062;7.850;2023-08-30T02:33:00;11.10;99.90
4215;DHT22;2121;48.062;7.850;2023-08-30T02:35:26;11.20;99.90
4215;DHT22;2121;48.062;7.850;2023-08-30T02:37:51;11.40;99.90
4215;DHT22;2121;48.062;7.850;2023-08-30T02:40:17;11.40;99.90
4215;DHT22;2121;48.062;7.850;2023-08-30T02:42:43;11.40;99.90
4215;DHT22;2121;48.062;7.850;2023-08-30T02:45:09;11.40;99.90
4215;DHT22;2121;48.062;7.850;2023-08-30T02:47:35;11.30;99.90
4215;DHT22;2121;48.062;7.850;2023-08-30T02:50:01;11.20;99.90
4215;DHT22;2121;48.062;7.850;2023-08-30T02:52:26;11.10;99.90
4215;DHT22;2121;48.062;7.850;2023-08-30T02:54:52;11.10;99.90
4215;DHT22;2121;48.062;7.850;2023-08-30T02:57:18;11.00;99.90
4215;DHT22;2121;48.062;7.850;2023-08-30T02:59:43;10.90;99.90
4215;DHT22;2121;48.062;7.850;2023-08-30T03:02:09;10.80;99.90
4215;DHT22;2121;48.062;7.850;2023-08-30T03:04:35;10.80;99.90
4215;DHT22;2121;48.062;7.850;2023-08-30T03:07:01;10.80;99.90
4215;DHT22;2121;48.062;7.850;2023-08-30T03:09:26;10.80;99.90
4215;DHT22;2121;48.062;7.850;2023-08-30T03:11:52;10.80;99.90
4215;DHT22;2121;48.062;7.850;2023-08-30T03:14:18;10.90;99.90
4215;DHT22;2121;48.062;7.850;2023-08-30T03:16:43;10.90;99.90
4215;DHT22;2121;48.062;7.850;2023-08-30T03:19:10;10.80;99.90
4215;DHT22;2121;48.062;7.850;2023-08-30T03:21:36;10.90;99.90
4215;DHT22;2121;48.062;7.850;2023-08-30T03:24:02;10.90;99.90
4215;DHT22;2121;48.062;7.850;2023-08-30T03:26:27;10.90;99.90
4215;DHT22;2121;48.062;7.850;2023-08-30T03:28:53;10.70;99.90
4215;DHT22;2121;48.062;7.850;2023-08-30T03:31:20;10.60;99.90
4215;DHT22;2121;48.062;7.850;2023-08-30T03:33:49;10.60;99.90
4215;DHT22;2121;48.062;7.850;2023-08-30T03:36:17;10.50;99.90
4215;DHT22;2121;48.062;7.850;2023-08-30T03:38:44;10.50;99.90
4215;DHT22;2121;48.062;7.850;2023-08-30T03:41:11;10.50;99.90
4215;DHT22;2121;48.062;7.850;2023-08-30T03:43:37;10.50;99.90
4215;DHT22;2121;48.062;7.850;2023-08-30T03:46:03;10.50;99.90
4215;DHT22;2121;48.062;7.850;2023-08-30T03:48:29;10.50;99.90
4215;DHT22;2121;48.062;7.850;2023-08-30T03:50:56;10.60;99.90
4215;DHT22;2121;48.062;7.850;2023-08-30T03:53:23;10.60;99.90
4215;DHT22;2121;48.062;7.850;2023-08-30T03:55:49;10.60;99.90
4215;DHT22;2121;48.062;7.850;2023-08-30T03:58:15;10.60;99.90
4215;DHT22;2121;48.062;7.850;2023-08-30T04:00:41;10.70;99.90
4215;DHT22;2121;48.062;7.850;2023-08-30T04:03:09;10.80;99.90
4215;DHT22;2121;48.062;7.850;2023-08-30T04:05:38;10.80;99.90
4215;DHT22;2121;48.062;7.850;2023-08-30T04:08:05;11.00;99.90
4215;DHT22;2121;48.062;7.850;2023-08-30T04:10:39;11.00;99.90
4215;DHT22;2121;48.062;7.850;2023-08-30T04:13:06;11.00;99.90
4215;DHT22;2121;48.062;7.850;2023-08-30T04:15:33;11.10;99.90
4215;DHT22;2121;48.062;7.850;2023-08-30T04:18:03;11.10;99.90
4215;DHT22;2121;48.062;7.850;2023-08-30T04:20:30;11.10;99.90
4215;DHT22;2121;48.062;7.850;2023-08-30T04:22:56;11.10;99.90
4215;DHT22;2121;48.062;7.850;2023-08-30T04:25:22;11.00;99.90
4215;DHT22;2121;48.062;7.850;2023-08-30T04:27:48;11.00;99.90
4215;DHT22;2121;48.062;7.850;2023-08-30T04:30:15;10.90;99.90
4215;DHT22;2121;48.062;7.850;2023-08-30T04:32:41;10.90;99.90
4215;DHT22;2121;48.062;7.850;2023-08-30T04:35:07;10.90;99.90
4215;DHT22;2121;48.062;7.850;2023-08-30T04:37:33;10.80;99.90
4215;DHT22;2121;48.062;7.850;2023-08-30T04:39:59;10.80;99.90
4215;DHT22;2121;48.062;7.850;2023-08-30T04:42:25;10.80;99.90
4215;DHT22;2121;48.062;7.850;2023-08-30T04:44:51;10.80;99.90
4215;DHT22;2121;48.062;7.850;2023-08-30T04:47:19;11.00;99.90
4215;DHT22;2121;48.062;7.850;2023-08-30T04:49:50;11.00;99.90
4215;DHT22;2121;48.062;7.850;2023-08-30T04:52:17;11.00;99.90
4215;DHT22;2121;48.062;7.850;2023-08-30T04:54:42;11.00;99.90
4215;DHT22;2121;48.062;7.850;2023-08-30T04:57:08;11.10;99.90
4215;DHT22;2121;48.062;7.850;2023-08-30T04:59:34;11.20;99.90
4215;DHT22;2121;48.062;7.850;2023-08-30T05:01:59;11.10;99.90
4215;DHT22;2121;48.062;7.850;2023-08-30T05:04:25;11.00;99.90
4215;DHT22;2121;48.062;7.850;2023-08-30T05:06:51;10.90;99.90
4215;DHT22;2121;48.062;7.850;2023-08-30T05:09:16;10.90;99.90
4215;DHT22;2121;48.062;7.850;2023-08-30T05:11:42;10.90;99.90
4215;DHT22;2121;48.062;7.850;2023-08-30T05:14:08;11.00;99.90
4215;DHT22;2121;48.062;7.850;2023-08-30T05:16:38;11.10;99.90
4215;DHT22;2121;48.062;7.850;2023-08-30T05:19:04;11.20;99.90
4215;DHT22;2121;48.062;7.850;2023-08-30T05:21:30;11.30;99.90
4215;DHT22;2121;48.062;7.850;2023-08-30T05:23:55;11.40;99.90
4215;DHT22;2121;48.062;7.850;2023-08-30T05:26:21;11.60;99.90
4215;DHT22;2121;48.062;7.850;2023-08-30T05:28:47;11.80;99.90
4215;DHT22;2121;48.062;7.850;2023-08-30T05:31:12;12.10;99.90
4215;DHT22;2121;48.062;7.850;2023-08-30T05:33:38;12.20;99.90
4215;DHT22;2121;48.062;7.850;2023-08-30T05:36:04;12.30;99.90
4215;DHT22;2121;48.062;7.850;2023-08-30T05:38:30;12.50;99.90
4215;DHT22;2121;48.062;7.850;2023-08-30T05:40:55;12.60;99.90
4215;DHT22;2121;48.062;7.850;2023-08-30T05:43:21;12.70;99.90
4215;DHT22;2121;48.062;7.850;2023-08-30T05:45:47;12.70;99.90
4215;DHT22;2121;48.062;7.850;2023-08-30T05:48:13;12.80;99.90
4215;DHT22;2121;48.062;7.850;2023-08-30T05:50:39;13.00;99.90
4215;DHT22;2121;48.062;7.850;2023-08-30T05:53:06;13.20;99.90
4215;DHT22;2121;48.062;7.850;2023-08-30T05:55:31;13.40;99.90
4215;DHT22;2121;48.062;7.850;2023-08-30T05:57:57;13.60;99.90
4215;DHT22;2121;48.062;7.850;2023-08-30T06:00:23;13.90;99.90
4215;DHT22;2121;48.062;7.850;2023-08-30T06:02:51;14.00;99.90
4215;DHT22;2121;48.062;7.850;2023-08-30T06:05:17;14.20;99.90
4215;DHT22;2121;48.062;7.850;2023-08-30T06:07:43;14.30;99.90
4215;DHT22;2121;48.062;7.850;2023-08-30T06:10:10;14.30;99.90
4215;DHT22;2121;48.062;7.850;2023-08-30T06:12:36;14.30;99.90
4215;DHT22;2121;48.062;7.850;2023-08-30T06:15:02;14.40;99.90
4215;DHT22;2121;48.062;7.850;2023-08-30T06:17:29;14.60;99.90
4215;DHT22;2121;48.062;7.850;2023-08-30T06:19:54;14.60;99.90
4215;DHT22;2121;48.062;7.850;2023-08-30T06:22:20;14.70;99.90
4215;DHT22;2121;48.062;7.850;2023-08-30T06:24:46;14.80;99.90
4215;DHT22;2121;48.062;7.850;2023-08-30T06:27:12;14.80;99.90
4215;DHT22;2121;48.062;7.850;2023-08-30T06:29:38;14.80;99.90
4215;DHT22;2121;48.062;7.850;2023-08-30T06:32:04;14.70;99.90
4215;DHT22;2121;48.062;7.850;2023-08-30T06:34:30;14.70;99.90
4215;DHT22;2121;48.062;7.850;2023-08-30T06:36:56;14.80;99.90
4215;DHT22;2121;48.062;7.850;2023-08-30T06:39:21;15.00;99.90
4215;DHT22;2121;48.062;7.850;2023-08-30T06:41:48;15.00;99.90
4215;DHT22;2121;48.062;7.850;2023-08-30T06:44:13;15.10;99.90
4215;DHT22;2121;48.062;7.850;2023-08-30T06:46:39;15.20;99.90
4215;DHT22;2121;48.062;7.850;2023-08-30T06:49:05;15.40;99.90
4215;DHT22;2121;48.062;7.850;2023-08-30T06:51:31;15.40;99.90
4215;DHT22;2121;48.062;7.850;2023-08-30T06:53:57;15.20;99.90
4215;DHT22;2121;48.062;7.850;2023-08-30T06:56:26;15.10;99.90
4215;DHT22;2121;48.062;7.850;2023-08-30T06:58:52;15.20;99.90
4215;DHT22;2121;48.062;7.850;2023-08-30T07:01:18;15.40;99.90
4215;DHT22;2121;48.062;7.850;2023-08-30T07:03:43;15.60;99.90
4215;DHT22;2121;48.062;7.850;2023-08-30T07:06:10;16.00;99.90
4215;DHT22;2121;48.062;7.850;2023-08-30T07:08:35;16.10;99.90
4215;DHT22;2121;48.062;7.850;2023-08-30T07:11:01;16.30;99.90
4215;DHT22;2121;48.062;7.850;2023-08-30T07:13:27;16.40;99.90
4215;DHT22;2121;48.062;7.850;2023-08-30T07:15:53;16.70;99.90
4215;DHT22;2121;48.062;7.850;2023-08-30T07:18:19;17.00;99.90
4215;DHT22;2121;48.062;7.850;2023-08-30T07:20:45;17.10;99.90
4215;DHT22;2121;48.062;7.850;2023-08-30T07:23:11;17.20;99.90
4215;DHT22;2121;48.062;7.850;2023-08-30T07:25:37;17.60;99.90
4215;DHT22;2121;48.062;7.850;2023-08-30T07:28:04;17.80;99.90
4215;DHT22;2121;48.062;7.850;2023-08-30T07:30:30;18.00;99.90
4215;DHT22;2121;48.062;7.850;2023-08-30T07:32:56;18.40;99.90
4215;DHT22;2121;48.062;7.850;2023-08-30T07:35:22;18.70;99.90
4215;DHT22;2121;48.062;7.850;2023-08-30T07:37:48;18.90;99.90
4215;DHT22;2121;48.062;7.850;2023-08-30T07:40:14;18.90;99.90
4215;DHT22;2121;48.062;7.850;2023-08-30T07:42:39;19.10;99.90
4215;DHT22;2121;48.062;7.850;2023-08-30T07:45:06;19.10;99.90
4215;DHT22;2121;48.062;7.850;2023-08-30T07:47:32;19.40;99.90
4215;DHT22;2121;48.062;7.850;2023-08-30T07:49:57;19.40;99.90
4215;DHT22;2121;48.062;7.850;2023-08-30T07:52:23;19.50;99.90
4215;DHT22;2121;48.062;7.850;2023-08-30T07:54:49;19.70;99.90
4215;DHT22;2121;48.062;7.850;2023-08-30T07:57:15;19.80;99.90
4215;DHT22;2121;48.062;7.850;2023-08-30T07:59:40;19.70;99.90
4215;DHT22;2121;48.062;7.850;2023-08-30T08:02:07;19.70;99.90
4215;DHT22;2121;48.062;7.850;2023-08-30T08:04:34;19.70;99.90
4215;DHT22;2121;48.062;7.850;2023-08-30T08:07:01;19.50;99.90
4215;DHT22;2121;48.062;7.850;2023-08-30T08:09:27;19.60;99.90
4215;DHT22;2121;48.062;7.850;2023-08-30T08:11:53;19.60;99.90
4215;DHT22;2121;48.062;7.850;2023-08-30T08:14:22;19.60;99.90
4215;DHT22;2121;48.062;7.850;2023-08-30T08:16:48;19.30;99.90
4215;DHT22;2121;48.062;7.850;2023-08-30T08:19:14;19.30;99.90
4215;DHT22;2121;48.062;7.850;2023-08-30T08:21:40;19.30;99.90
4215;DHT22;2121;48.062;7.850;2023-08-30T08:24:06;19.50;99.90
4215;DHT22;2121;48.062;7.850;2023-08-30T08:26:31;19.20;99.90
4215;DHT22;2121;48.062;7.850;2023-08-30T08:28:57;19.00;99.90
4215;DHT22;2121;48.062;7.850;2023-08-30T08:31:23;18.80;99.90
4215;DHT22;2121;48.062;7.850;2023-08-30T08:34:11;18.30;99.90
4215;DHT22;2121;48.062;7.850;2023-08-30T08:36:38;18.30;99.90
4215;DHT22;2121;48.062;7.850;2023-08-30T08:39:06;18.40;99.90
4215;DHT22;2121;48.062;7.850;2023-08-30T08:41:41;18.60;99.90
4215;DHT22;2121;48.062;7.850;2023-08-30T08:44:08;18.70;99.90
4215;DHT22;2121;48.062;7.850;2023-08-30T08:46:35;18.90;99.90
4215;DHT22;2121;48.062;7.850;2023-08-30T08:49:14;19.00;99.90
4215;DHT22;2121;48.062;7.850;2023-08-30T08:51:41;19.20;99.90
4215;DHT22;2121;48.062;7.850;2023-08-30T08:54:08;19.50;99.90
4215;DHT22;2121;48.062;7.850;2023-08-30T08:56:35;19.40;99.90
4215;DHT22;2121;48.062;7.850;2023-08-30T08:59:01;19.10;99.90
4215;DHT22;2121;48.062;7.850;2023-08-30T09:01:27;18.80;99.90
4215;DHT22;2121;48.062;7.850;2023-08-30T09:03:54;18.90;99.90
4215;DHT22;2121;48.062;7.850;2023-08-30T09:06:21;19.20;99.90
4215;DHT22;2121;48.062;7.850;2023-08-30T09:08:47;19.50;99.90
4215;DHT22;2121;48.062;7.850;2023-08-30T09:11:13;19.70;99.90
4215;DHT22;2121;48.062;7.850;2023-08-30T09:13:39;19.70;99.90
4215;DHT22;2121;48.062;7.850;2023-08-30T09:16:14;19.80;99.90
4215;DHT22;2121;48.062;7.850;2023-08-30T09:18:43;19.90;99.90
4215;DHT22;2121;48.062;7.850;2023-08-30T09:21:10;19.70;99.90
4215;DHT22;2121;48.062;7.850;2023-08-30T09:23:37;19.60;99.90
4215;DHT22;2121;48.062;7.850;2023-08-30T09:26:03;19.50;99.90
4215;DHT22;2121;48.062;7.850;2023-08-30T09:28:30;19.60;99.90
4215;DHT22;2121;48.062;7.850;2023-08-30T09:30:58;19.60;99.90
4215;DHT22;2121;48.062;7.850;2023-08-30T09:33:32;20.00;99.90
4215;DHT22;2121;48.062;7.850;2023-08-30T09:35:59;20.30;99.90
4215;DHT22;2121;48.062;7.850;2023-08-30T09:38:26;20.40;99.90
4215;DHT22;2121;48.062;7.850;2023-08-30T09:41:02;20.30;99.90
4215;DHT22;2121;48.062;7.850;2023-08-30T09:43:30;20.60;99.90
4215;DHT22;2121;48.062;7.850;2023-08-30T09:45:58;20.40;99.90
4215;DHT22;2121;48.062;7.850;2023-08-30T09:48:28;20.40;99.90
4215;DHT22;2121;48.062;7.850;2023-08-30T09:50:54;20.50;99.90
4215;DHT22;2121;48.062;7.850;2023-08-30T09:53:26;20.90;99.90
4215;DHT22;2121;48.062;7.850;2023-08-30T09:55:53;21.20;99.90
4215;DHT22;2121;48.062;7.850;2023-08-30T09:58:21;21.20;99.90
4215;DHT22;2121;48.062;7.850;2023-08-30T10:00:48;21.50;99.90
4215;DHT22;2121;48.062;7.850;2023-08-30T10:03:15;21.50;99.90
4215;DHT22;2121;48.062;7.850;2023-08-30T10:05:43;21.40;99.90
4215;DHT22;2121;48.062;7.850;2023-08-30T10:08:11;21.00;99.90
4215;DHT22;2121;48.062;7.850;2023-08-30T10:10:39;21.00;99.90
4215;DHT22;2121;48.062;7.850;2023-08-30T10:13:06;20.90;99.90
4215;DHT22;2121;48.062;7.850;2023-08-30T10:15:33;20.90;99.90
4215;DHT22;2121;48.062;7.850;2023-08-30T10:18:02;21.30;99.90
4215;DHT22;2121;48.062;7.850;2023-08-30T10:20:29;21.70;99.90
4215;DHT22;2121;48.062;7.850;2023-08-30T10:22:56;21.80;99.90
4215;DHT22;2121;48.062;7.850;2023-08-30T10:25:26;22.20;99.90
4215;DHT22;2121;48.062;7.850;2023-08-30T10:27:53;22.20;99.90
4215;DHT22;2121;48.062;7.850;2023-08-30T10:30:21;22.10;99.90
4215;DHT22;2121;48.062;7.850;2023-08-30T10:32:48;22.30;99.90
4215;DHT22;2121;48.062;7.850;2023-08-30T10:35:15;22.50;99.90
4215;DHT22;2121;48.062;7.850;2023-08-30T10:37:57;22.80;99.90
4215;DHT22;2121;48.062;7.850;2023-08-30T10:40:25;22.90;99.90
4215;DHT22;2121;48.062;7.850;2023-08-30T10:43:03;23.00;99.90
4215;DHT22;2121;48.062;7.850;2023-08-30T10:45:29;22.90;99.90
4215;DHT22;2121;48.062;7.850;2023-08-30T10:47:57;22.70;99.90
4215;DHT22;2121;48.062;7.850;2023-08-30T10:50:34;22.60;99.90
4215;DHT22;2121;48.062;7.850;2023-08-30T10:53:00;22.50;99.90
4215;DHT22;2121;48.062;7.850;2023-08-30T10:55:26;22.30;99.90
4215;DHT22;2121;48.062;7.850;2023-08-30T10:58:00;22.20;99.90
4215;DHT22;2121;48.062;7.850;2023-08-30T11:00:30;21.90;99.90
4215;DHT22;2121;48.062;7.850;2023-08-30T11:02:56;21.70;99.90
4215;DHT22;2121;48.062;7.850;2023-08-30T11:05:26;22.00;99.90
4215;DHT22;2121;48.062;7.850;2023-08-30T11:07:53;22.40;99.90
4215;DHT22;2121;48.062;7.850;2023-08-30T11:10:20;22.50;99.90
4215;DHT22;2121;48.062;7.850;2023-08-30T11:12:47;22.30;99.90
4215;DHT22;2121;48.062;7.850;2023-08-30T11:15:14;22.10;99.90
4215;DHT22;2121;48.062;7.850;2023-08-30T11:17:41;22.00;99.90
4215;DHT22;2121;48.062;7.850;2023-08-30T11:20:12;22.30;99.90
4215;DHT22;2121;48.062;7.850;2023-08-30T11:22:44;22.70;99.90
4215;DHT22;2121;48.062;7.850;2023-08-30T11:25:12;22.20;99.90
4215;DHT22;2121;48.062;7.850;2023-08-30T11:27:39;22.70;99.90
4215;DHT22;2121;48.062;7.850;2023-08-30T11:30:06;22.50;99.90
4215;DHT22;2121;48.062;7.850;2023-08-30T11:32:38;22.90;99.90
4215;DHT22;2121;48.062;7.850;2023-08-30T11:35:05;23.20;99.90
4215;DHT22;2121;48.062;7.850;2023-08-30T11:37:32;23.50;99.70
4215;DHT22;2121;48.062;7.850;2023-08-30T11:39:58;24.00;99.60
4215;DHT22;2121;48.062;7.850;2023-08-30T11:42:25;24.30;99.50
4215;DHT22;2121;48.062;7.850;2023-08-30T11:44:51;23.90;99.10
4215;DHT22;2121;48.062;7.850;2023-08-30T11:47:19;23.20;99.90
4215;DHT22;2121;48.062;7.850;2023-08-30T11:49:47;23.40;99.90
4215;DHT22;2121;48.062;7.850;2023-08-30T11:52:15;23.60;99.10
4215;DHT22;2121;48.062;7.850;2023-08-30T11:54:42;24.00;99.10
4215;DHT22;2121;48.062;7.850;2023-08-30T11:57:08;24.10;99.10
4215;DHT22;2121;48.062;7.850;2023-08-30T11:59:35;24.40;98.50
4215;DHT22;2121;48.062;7.850;2023-08-30T12:02:02;24.60;98.70
4215;DHT22;2121;48.062;7.850;2023-08-30T12:04:29;24.80;97.60
4215;DHT22;2121;48.062;7.850;2023-08-30T12:06:56;24.70;97.30
4215;DHT22;2121;48.062;7.850;2023-08-30T12:09:22;24.50;96.80
4215;DHT22;2121;48.062;7.850;2023-08-30T12:11:51;24.80;96.20
4215;DHT22;2121;48.062;7.850;2023-08-30T12:14:17;25.10;95.60
4215;DHT22;2121;48.062;7.850;2023-08-30T12:16:43;25.70;96.60
4215;DHT22;2121;48.062;7.850;2023-08-30T12:19:10;25.90;95.80
4215;DHT22;2121;48.062;7.850;2023-08-30T12:21:44;25.30;96.40
4215;DHT22;2121;48.062;7.850;2023-08-30T12:24:10;25.50;96.20
4215;DHT22;2121;48.062;7.850;2023-08-30T12:26:36;26.10;95.40
4215;DHT22;2121;48.062;7.850;2023-08-30T12:29:04;26.20;95.50
4215;DHT22;2121;48.062;7.850;2023-08-30T12:31:32;26.10;95.30
4215;DHT22;2121;48.062;7.850;2023-08-30T12:33:58;26.00;94.90
4215;DHT22;2121;48.062;7.850;2023-08-30T12:36:24;26.10;95.20
4215;DHT22;2121;48.062;7.850;2023-08-30T12:38:50;26.00;95.90
4215;DHT22;2121;48.062;7.850;2023-08-30T12:41:16;26.10;94.40
4215;DHT22;2121;48.062;7.850;2023-08-30T12:43:41;26.50;94.60
4215;DHT22;2121;48.062;7.850;2023-08-30T12:46:07;26.30;94.50
4215;DHT22;2121;48.062;7.850;2023-08-30T12:48:33;26.30;95.00
4215;DHT22;2121;48.062;7.850;2023-08-30T12:50:58;26.20;95.50
4215;DHT22;2121;48.062;7.850;2023-08-30T12:53:24;26.10;95.00
4215;DHT22;2121;48.062;7.850;2023-08-30T12:55:50;25.80;95.50
4215;DHT22;2121;48.062;7.850;2023-08-30T12:58:15;26.00;95.90
4215;DHT22;2121;48.062;7.850;2023-08-30T13:00:41;25.60;95.70
4215;DHT22;2121;48.062;7.850;2023-08-30T13:03:07;26.30;95.40
4215;DHT22;2121;48.062;7.850;2023-08-30T13:05:33;27.20;94.90
4215;DHT22;2121;48.062;7.850;2023-08-30T13:08:00;26.70;94.10
4215;DHT22;2121;48.062;7.850;2023-08-30T13:10:26;27.30;94.70
4215;DHT22;2121;48.062;7.850;2023-08-30T13:12:51;28.10;93.50
4215;DHT22;2121;48.062;7.850;2023-08-30T13:15:17;27.30;94.30
4215;DHT22;2121;48.062;7.850;2023-08-30T13:17:43;26.20;94.20
4215;DHT22;2121;48.062;7.850;2023-08-30T13:20:09;25.10;95.60
4215;DHT22;2121;48.062;7.850;2023-08-30T13:22:36;24.60;96.70
4215;DHT22;2121;48.062;7.850;2023-08-30T13:25:02;24.40;97.00
4215;DHT22;2121;48.062;7.850;2023-08-30T13:27:31;23.90;96.60
4215;DHT22;2121;48.062;7.850;2023-08-30T13:29:57;23.80;97.20
4215;DHT22;2121;48.062;7.850;2023-08-30T13:32:22;23.90;98.30
4215;DHT22;2121;48.062;7.850;2023-08-30T13:34:50;23.50;98.30
4215;DHT22;2121;48.062;7.850;2023-08-30T13:37:16;23.20;98.50
4215;DHT22;2121;48.062;7.850;2023-08-30T13:39:43;23.20;98.50
4215;DHT22;2121;48.062;7.850;2023-08-30T13:42:08;23.00;98.70
4215;DHT22;2121;48.062;7.850;2023-08-30T13:44:35;23.00;98.20
4215;DHT22;2121;48.062;7.850;2023-08-30T13:47:05;23.20;98.30
4215;DHT22;2121;48.062;7.850;2023-08-30T13:49:31;23.70;98.30
4215;DHT22;2121;48.062;7.850;2023-08-30T13:51:58;24.20;97.00
4215;DHT22;2121;48.062;7.850;2023-08-30T13:54:24;24.70;97.30
4215;DHT22;2121;48.062;7.850;2023-08-30T13:56:56;25.30;95.80
4215;DHT22;2121;48.062;7.850;2023-08-30T13:59:22;25.60;95.70
4215;DHT22;2121;48.062;7.850;2023-08-30T14:01:48;25.40;95.30
4215;DHT22;2121;48.062;7.850;2023-08-30T14:04:14;25.20;95.80
4215;DHT22;2121;48.062;7.850;2023-08-30T14:06:39;25.90;96.60
4215;DHT22;2121;48.062;7.850;2023-08-30T14:09:05;26.30;95.40
4215;DHT22;2121;48.062;7.850;2023-08-30T14:11:34;27.00;95.10
4215;DHT22;2121;48.062;7.850;2023-08-30T14:14:02;27.90;93.80
4215;DHT22;2121;48.062;7.850;2023-08-30T14:16:28;27.80;94.40
4215;DHT22;2121;48.062;7.850;2023-08-30T14:18:53;27.40;93.50
4215;DHT22;2121;48.062;7.850;2023-08-30T14:21:20;26.70;93.20
4215;DHT22;2121;48.062;7.850;2023-08-30T14:23:46;26.10;94.20
4215;DHT22;2121;48.062;7.850;2023-08-30T14:26:11;25.40;95.20
4215;DHT22;2121;48.062;7.850;2023-08-30T14:28:41;25.30;95.00
4215;DHT22;2121;48.062;7.850;2023-08-30T14:31:10;24.90;96.10
4215;DHT22;2121;48.062;7.850;2023-08-30T14:33:37;24.80;96.30
4215;DHT22;2121;48.062;7.850;2023-08-30T14:36:08;24.60;96.10
4215;DHT22;2121;48.062;7.850;2023-08-30T14:38:34;24.10;96.60
4215;DHT22;2121;48.062;7.850;2023-08-30T14:41:02;23.80;96.60
4215;DHT22;2121;48.062;7.850;2023-08-30T14:43:28;24.30;95.70
4215;DHT22;2121;48.062;7.850;2023-08-30T14:46:00;24.60;96.00
4215;DHT22;2121;48.062;7.850;2023-08-30T14:48:26;24.20;97.00
4215;DHT22;2121;48.062;7.850;2023-08-30T14:50:52;24.10;96.40
4215;DHT22;2121;48.062;7.850;2023-08-30T14:53:18;24.10;96.60
4215;DHT22;2121;48.062;7.850;2023-08-30T14:55:47;24.30;96.30
4215;DHT22;2121;48.062;7.850;2023-08-30T14:58:13;24.20;95.70
4215;DHT22;2121;48.062;7.850;2023-08-30T15:00:39;24.20;95.90
4215;DHT22;2121;48.062;7.850;2023-08-30T15:03:05;24.40;95.70
4215;DHT22;2121;48.062;7.850;2023-08-30T15:05:31;24.80;96.60
4215;DHT22;2121;48.062;7.850;2023-08-30T15:07:57;25.20;95.10
4215;DHT22;2121;48.062;7.850;2023-08-30T15:10:23;26.30;94.90
4215;DHT22;2121;48.062;7.850;2023-08-30T15:12:49;29.00;93.90
4215;DHT22;2121;48.062;7.850;2023-08-30T15:15:15;32.90;91.30
4215;DHT22;2121;48.062;7.850;2023-08-30T15:17:41;35.70;86.10
4215;DHT22;2121;48.062;7.850;2023-08-30T15:20:07;37.60;79.90
4215;DHT22;2121;48.062;7.850;2023-08-30T15:22:34;37.90;74.30
4215;DHT22;2121;48.062;7.850;2023-08-30T15:25:00;38.30;71.90
4215;DHT22;2121;48.062;7.850;2023-08-30T15:27:29;37.80;70.90
4215;DHT22;2121;48.062;7.850;2023-08-30T15:29:55;35.90;69.80
4215;DHT22;2121;48.062;7.850;2023-08-30T15:32:22;32.60;75.60
4215;DHT22;2121;48.062;7.850;2023-08-30T15:34:50;31.30;76.10
4215;DHT22;2121;48.062;7.850;2023-08-30T15:37:16;30.30;77.50
4215;DHT22;2121;48.062;7.850;2023-08-30T15:39:42;31.60;77.10
4215;DHT22;2121;48.062;7.850;2023-08-30T15:42:08;33.40;74.50
4215;DHT22;2121;48.062;7.850;2023-08-30T15:44:35;34.50;74.00
4215;DHT22;2121;48.062;7.850;2023-08-30T15:47:01;34.80;72.20
4215;DHT22;2121;48.062;7.850;2023-08-30T15:49:26;35.50;71.10
4215;DHT22;2121;48.062;7.850;2023-08-30T15:51:52;35.70;70.00
4215;DHT22;2121;48.062;7.850;2023-08-30T15:54:18;36.30;69.80
4215;DHT22;2121;48.062;7.850;2023-08-30T15:56:43;36.80;69.50
4215;DHT22;2121;48.062;7.850;2023-08-30T15:59:10;36.90;69.20
4215;DHT22;2121;48.062;7.850;2023-08-30T16:01:36;35.50;67.60
4215;DHT22;2121;48.062;7.850;2023-08-30T16:04:03;35.30;68.90
4215;DHT22;2121;48.062;7.850;2023-08-30T16:06:29;34.90;69.80